OZG weather

Zagora Airport
Zagora, Tiznit Province, Morocco

Public forecast

Using degrees Celsius for public forecast. Weather courtesy of forecast.io.

Closest aviation weather report (METAR) to Zagora Airport

Closest report is Ouarzazate Airport, 65.4 nm (121.2 km) NW. Retrieved 2019/12/16 12:00 UTC (32 minutes ago):

GMMZ 161200Z VRB02KT 9999 FEW030 17/M09 Q1013 NOSIG

Closest aviation forecast (TAF) to Zagora Airport

Closest forecast is Ouarzazate Airport, 65.4 nm (121.2 km) NW. Retrieved 2019/12/16 12:18 UTC (14 minutes ago):

TAF GMMZ 161100Z 1612/1718 09012KT 9999 FEW030 BKN244 TEMPO 1614/1620 20025KT